sensor_id;sensor_type;location;lat;lon;timestamp;P1;durP1;ratioP1;P2;durP2;ratioP2
15112;SDS011;7657;50.140;7.076;2022-11-20T00:01:06;19.63;;;10.53;;
15112;SDS011;7657;50.140;7.076;2022-11-20T00:03:34;28.03;;;10.53;;
15112;SDS011;7657;50.140;7.076;2022-11-20T00:06:01;17.20;;;9.73;;
15112;SDS011;7657;50.140;7.076;2022-11-20T00:08:28;17.70;;;9.90;;
15112;SDS011;7657;50.140;7.076;2022-11-20T00:10:55;15.33;;;9.23;;
15112;SDS011;7657;50.140;7.076;2022-11-20T00:13:22;17.53;;;9.87;;
15112;SDS011;7657;50.140;7.076;2022-11-20T00:15:57;17.67;;;9.77;;
15112;SDS011;7657;50.140;7.076;2022-11-20T00:18:25;23.43;;;11.47;;
15112;SDS011;7657;50.140;7.076;2022-11-20T00:20:52;18.27;;;10.33;;
15112;SDS011;7657;50.140;7.076;2022-11-20T00:23:19;18.47;;;10.10;;
15112;SDS011;7657;50.140;7.076;2022-11-20T00:25:46;19.90;;;9.90;;
15112;SDS011;7657;50.140;7.076;2022-11-20T00:28:13;18.50;;;10.23;;
15112;SDS011;7657;50.140;7.076;2022-11-20T00:30:40;17.63;;;11.00;;
15112;SDS011;7657;50.140;7.076;2022-11-20T00:33:08;19.63;;;11.90;;
15112;SDS011;7657;50.140;7.076;2022-11-20T00:35:35;21.73;;;13.13;;
15112;SDS011;7657;50.140;7.076;2022-11-20T00:38:02;17.03;;;10.67;;
15112;SDS011;7657;50.140;7.076;2022-11-20T00:40:28;16.53;;;9.93;;
15112;SDS011;7657;50.140;7.076;2022-11-20T00:42:55;15.80;;;9.13;;
15112;SDS011;7657;50.140;7.076;2022-11-20T00:45:22;20.90;;;11.63;;
15112;SDS011;7657;50.140;7.076;2022-11-20T00:47:49;15.70;;;9.53;;
15112;SDS011;7657;50.140;7.076;2022-11-20T00:50:17;18.03;;;10.20;;
15112;SDS011;7657;50.140;7.076;2022-11-20T00:52:44;19.13;;;10.00;;
15112;SDS011;7657;50.140;7.076;2022-11-20T00:55:11;17.17;;;10.43;;
15112;SDS011;7657;50.140;7.076;2022-11-20T00:57:38;21.13;;;10.60;;
15112;SDS011;7657;50.140;7.076;2022-11-20T01:00:05;19.43;;;10.43;;
15112;SDS011;7657;50.140;7.076;2022-11-20T01:02:33;17.07;;;10.10;;
15112;SDS011;7657;50.140;7.076;2022-11-20T01:05:00;20.97;;;9.77;;
15112;SDS011;7657;50.140;7.076;2022-11-20T01:07:28;20.97;;;10.43;;
15112;SDS011;7657;50.140;7.076;2022-11-20T01:09:55;14.67;;;9.07;;
15112;SDS011;7657;50.140;7.076;2022-11-20T01:12:22;16.77;;;9.70;;
15112;SDS011;7657;50.140;7.076;2022-11-20T01:14:49;16.17;;;8.97;;
15112;SDS011;7657;50.140;7.076;2022-11-20T01:17:16;16.83;;;9.70;;
15112;SDS011;7657;50.140;7.076;2022-11-20T01:19:42;17.80;;;9.37;;
15112;SDS011;7657;50.140;7.076;2022-11-20T01:22:09;14.30;;;7.20;;
15112;SDS011;7657;50.140;7.076;2022-11-20T01:24:37;17.40;;;9.50;;
15112;SDS011;7657;50.140;7.076;2022-11-20T01:27:04;16.70;;;9.47;;
15112;SDS011;7657;50.140;7.076;2022-11-20T01:29:31;15.07;;;8.57;;
15112;SDS011;7657;50.140;7.076;2022-11-20T01:31:58;17.90;;;8.10;;
15112;SDS011;7657;50.140;7.076;2022-11-20T01:34:25;14.50;;;8.90;;
15112;SDS011;7657;50.140;7.076;2022-11-20T01:36:52;13.73;;;8.20;;
15112;SDS011;7657;50.140;7.076;2022-11-20T01:39:20;14.27;;;7.77;;
15112;SDS011;7657;50.140;7.076;2022-11-20T01:41:49;14.63;;;8.20;;
15112;SDS011;7657;50.140;7.076;2022-11-20T01:47:25;16.60;;;8.73;;
15112;SDS011;7657;50.140;7.076;2022-11-20T01:49:56;20.77;;;8.57;;
15112;SDS011;7657;50.140;7.076;2022-11-20T01:52:28;18.07;;;8.17;;
15112;SDS011;7657;50.140;7.076;2022-11-20T01:54:59;16.20;;;8.73;;
15112;SDS011;7657;50.140;7.076;2022-11-20T01:57:31;18.30;;;8.37;;
15112;SDS011;7657;50.140;7.076;2022-11-20T02:00:02;17.93;;;9.77;;
15112;SDS011;7657;50.140;7.076;2022-11-20T02:02:31;18.43;;;8.33;;
15112;SDS011;7657;50.140;7.076;2022-11-20T02:05:00;17.10;;;8.53;;
15112;SDS011;7657;50.140;7.076;2022-11-20T02:07:34;19.87;;;9.40;;
15112;SDS011;7657;50.140;7.076;2022-11-20T02:10:02;16.30;;;8.17;;
15112;SDS011;7657;50.140;7.076;2022-11-20T02:12:31;13.40;;;8.17;;
15112;SDS011;7657;50.140;7.076;2022-11-20T02:15:16;20.60;;;8.67;;
15112;SDS011;7657;50.140;7.076;2022-11-20T02:17:44;19.97;;;8.23;;
15112;SDS011;7657;50.140;7.076;2022-11-20T02:20:11;18.63;;;9.67;;
15112;SDS011;7657;50.140;7.076;2022-11-20T02:22:40;23.63;;;9.63;;
15112;SDS011;7657;50.140;7.076;2022-11-20T02:25:14;19.17;;;9.53;;
15112;SDS011;7657;50.140;7.076;2022-11-20T02:27:41;17.40;;;9.37;;
15112;SDS011;7657;50.140;7.076;2022-11-20T02:30:08;18.10;;;9.20;;
15112;SDS011;7657;50.140;7.076;2022-11-20T02:32:37;23.10;;;10.70;;
15112;SDS011;7657;50.140;7.076;2022-11-20T02:35:07;20.33;;;9.80;;
15112;SDS011;7657;50.140;7.076;2022-11-20T02:37:36;17.47;;;9.50;;
15112;SDS011;7657;50.140;7.076;2022-11-20T02:40:06;26.50;;;10.30;;
15112;SDS011;7657;50.140;7.076;2022-11-20T02:42:35;24.00;;;9.97;;
15112;SDS011;7657;50.140;7.076;2022-11-20T02:45:02;23.80;;;10.47;;
15112;SDS011;7657;50.140;7.076;2022-11-20T02:47:30;16.27;;;8.97;;
15112;SDS011;7657;50.140;7.076;2022-11-20T02:49:57;20.60;;;9.60;;
15112;SDS011;7657;50.140;7.076;2022-11-20T02:52:24;20.03;;;9.50;;
15112;SDS011;7657;50.140;7.076;2022-11-20T02:54:52;22.90;;;10.60;;
15112;SDS011;7657;50.140;7.076;2022-11-20T02:57:19;22.33;;;9.67;;
15112;SDS011;7657;50.140;7.076;2022-11-20T02:59:47;18.17;;;10.50;;
15112;SDS011;7657;50.140;7.076;2022-11-20T03:02:14;15.47;;;8.67;;
15112;SDS011;7657;50.140;7.076;2022-11-20T03:04:41;17.67;;;8.67;;
15112;SDS011;7657;50.140;7.076;2022-11-20T03:07:08;18.73;;;10.07;;
15112;SDS011;7657;50.140;7.076;2022-11-20T03:09:35;21.00;;;8.93;;
15112;SDS011;7657;50.140;7.076;2022-11-20T03:12:02;21.90;;;9.33;;
15112;SDS011;7657;50.140;7.076;2022-11-20T03:14:30;20.33;;;9.63;;
15112;SDS011;7657;50.140;7.076;2022-11-20T03:16:58;16.83;;;9.53;;
15112;SDS011;7657;50.140;7.076;2022-11-20T03:19:25;23.37;;;9.87;;
15112;SDS011;7657;50.140;7.076;2022-11-20T03:21:52;20.23;;;8.87;;
15112;SDS011;7657;50.140;7.076;2022-11-20T03:24:18;23.87;;;10.30;;
15112;SDS011;7657;50.140;7.076;2022-11-20T03:26:45;21.63;;;10.03;;
15112;SDS011;7657;50.140;7.076;2022-11-20T03:29:12;20.43;;;10.00;;
15112;SDS011;7657;50.140;7.076;2022-11-20T03:31:39;18.00;;;8.97;;
15112;SDS011;7657;50.140;7.076;2022-11-20T03:34:09;36.10;;;10.37;;
15112;SDS011;7657;50.140;7.076;2022-11-20T03:36:37;19.80;;;9.50;;
15112;SDS011;7657;50.140;7.076;2022-11-20T03:39:05;23.77;;;8.67;;
15112;SDS011;7657;50.140;7.076;2022-11-20T03:41:35;15.27;;;8.70;;
15112;SDS011;7657;50.140;7.076;2022-11-20T03:44:04;17.03;;;8.07;;
15112;SDS011;7657;50.140;7.076;2022-11-20T03:46:33;15.77;;;9.60;;
15112;SDS011;7657;50.140;7.076;2022-11-20T03:49:00;14.27;;;7.80;;
15112;SDS011;7657;50.140;7.076;2022-11-20T03:51:29;16.43;;;9.17;;
15112;SDS011;7657;50.140;7.076;2022-11-20T03:53:58;13.90;;;8.10;;
15112;SDS011;7657;50.140;7.076;2022-11-20T03:56:27;13.90;;;8.23;;
15112;SDS011;7657;50.140;7.076;2022-11-20T03:58:56;14.57;;;7.73;;
15112;SDS011;7657;50.140;7.076;2022-11-20T04:01:23;12.70;;;7.57;;
15112;SDS011;7657;50.140;7.076;2022-11-20T04:03:52;12.20;;;7.63;;
15112;SDS011;7657;50.140;7.076;2022-11-20T04:06:20;12.67;;;7.33;;
15112;SDS011;7657;50.140;7.076;2022-11-20T04:08:50;12.27;;;7.40;;
15112;SDS011;7657;50.140;7.076;2022-11-20T04:11:18;12.03;;;7.00;;
15112;SDS011;7657;50.140;7.076;2022-11-20T04:13:47;12.30;;;7.17;;
15112;SDS011;7657;50.140;7.076;2022-11-20T04:16:16;13.33;;;7.80;;
15112;SDS011;7657;50.140;7.076;2022-11-20T04:18:43;13.73;;;8.10;;
15112;SDS011;7657;50.140;7.076;2022-11-20T04:21:11;13.07;;;7.77;;
15112;SDS011;7657;50.140;7.076;2022-11-20T04:23:38;12.90;;;7.50;;
15112;SDS011;7657;50.140;7.076;2022-11-20T04:26:07;12.97;;;7.67;;
15112;SDS011;7657;50.140;7.076;2022-11-20T04:28:36;13.23;;;7.83;;
15112;SDS011;7657;50.140;7.076;2022-11-20T04:31:04;14.97;;;7.60;;
15112;SDS011;7657;50.140;7.076;2022-11-20T04:33:32;11.87;;;7.37;;
15112;SDS011;7657;50.140;7.076;2022-11-20T04:36:01;14.77;;;8.60;;
15112;SDS011;7657;50.140;7.076;2022-11-20T04:38:29;13.37;;;7.90;;
15112;SDS011;7657;50.140;7.076;2022-11-20T04:40:57;13.80;;;8.07;;
15112;SDS011;7657;50.140;7.076;2022-11-20T04:43:26;21.43;;;8.80;;
15112;SDS011;7657;50.140;7.076;2022-11-20T04:45:53;13.70;;;7.87;;
15112;SDS011;7657;50.140;7.076;2022-11-20T04:48:20;12.10;;;8.00;;
15112;SDS011;7657;50.140;7.076;2022-11-20T04:50:48;12.33;;;7.53;;
15112;SDS011;7657;50.140;7.076;2022-11-20T04:53:14;11.50;;;6.93;;
15112;SDS011;7657;50.140;7.076;2022-11-20T04:55:41;12.60;;;7.17;;
15112;SDS011;7657;50.140;7.076;2022-11-20T04:58:08;12.30;;;7.50;;
15112;SDS011;7657;50.140;7.076;2022-11-20T05:00:36;13.03;;;7.10;;
15112;SDS011;7657;50.140;7.076;2022-11-20T05:03:03;12.83;;;7.47;;
15112;SDS011;7657;50.140;7.076;2022-11-20T05:05:30;12.87;;;7.47;;
15112;SDS011;7657;50.140;7.076;2022-11-20T05:07:58;10.43;;;6.77;;
15112;SDS011;7657;50.140;7.076;2022-11-20T05:10:26;11.33;;;6.80;;
15112;SDS011;7657;50.140;7.076;2022-11-20T05:12:53;11.50;;;7.10;;
15112;SDS011;7657;50.140;7.076;2022-11-20T05:15:20;11.50;;;6.60;;
15112;SDS011;7657;50.140;7.076;2022-11-20T05:17:49;11.57;;;6.00;;
15112;SDS011;7657;50.140;7.076;2022-11-20T05:20:16;12.07;;;7.00;;
15112;SDS011;7657;50.140;7.076;2022-11-20T05:22:44;10.93;;;6.23;;
15112;SDS011;7657;50.140;7.076;2022-11-20T05:25:11;10.63;;;6.17;;
15112;SDS011;7657;50.140;7.076;2022-11-20T05:27:38;9.07;;;5.90;;
15112;SDS011;7657;50.140;7.076;2022-11-20T05:30:06;10.60;;;6.33;;
15112;SDS011;7657;50.140;7.076;2022-11-20T05:32:34;10.90;;;6.10;;
15112;SDS011;7657;50.140;7.076;2022-11-20T05:35:02;11.80;;;6.87;;
15112;SDS011;7657;50.140;7.076;2022-11-20T05:37:29;10.80;;;6.53;;
15112;SDS011;7657;50.140;7.076;2022-11-20T05:39:56;9.77;;;5.67;;
15112;SDS011;7657;50.140;7.076;2022-11-20T05:42:23;10.00;;;6.00;;
15112;SDS011;7657;50.140;7.076;2022-11-20T05:44:56;11.53;;;6.47;;
15112;SDS011;7657;50.140;7.076;2022-11-20T05:47:23;10.60;;;5.97;;
15112;SDS011;7657;50.140;7.076;2022-11-20T05:49:51;11.83;;;6.93;;
15112;SDS011;7657;50.140;7.076;2022-11-20T05:52:19;10.47;;;6.63;;
15112;SDS011;7657;50.140;7.076;2022-11-20T05:54:46;12.57;;;7.00;;
15112;SDS011;7657;50.140;7.076;2022-11-20T05:57:13;12.53;;;7.33;;
15112;SDS011;7657;50.140;7.076;2022-11-20T05:59:41;13.83;;;7.57;;
15112;SDS011;7657;50.140;7.076;2022-11-20T06:02:08;13.87;;;7.23;;
15112;SDS011;7657;50.140;7.076;2022-11-20T06:04:35;15.90;;;7.50;;
15112;SDS011;7657;50.140;7.076;2022-11-20T06:07:02;18.73;;;8.00;;
15112;SDS011;7657;50.140;7.076;2022-11-20T06:09:30;13.53;;;7.60;;
15112;SDS011;7657;50.140;7.076;2022-11-20T06:11:57;15.40;;;7.90;;
15112;SDS011;7657;50.140;7.076;2022-11-20T06:14:24;13.10;;;7.87;;
15112;SDS011;7657;50.140;7.076;2022-11-20T06:16:51;17.47;;;7.90;;
15112;SDS011;7657;50.140;7.076;2022-11-20T06:19:17;14.43;;;6.70;;
15112;SDS011;7657;50.140;7.076;2022-11-20T06:21:44;13.43;;;6.80;;
15112;SDS011;7657;50.140;7.076;2022-11-20T06:24:13;12.70;;;6.70;;
15112;SDS011;7657;50.140;7.076;2022-11-20T06:26:41;23.60;;;6.80;;
15112;SDS011;7657;50.140;7.076;2022-11-20T06:29:08;35.80;;;7.87;;
15112;SDS011;7657;50.140;7.076;2022-11-20T06:31:35;22.20;;;7.27;;
15112;SDS011;7657;50.140;7.076;2022-11-20T06:34:03;13.77;;;5.83;;
15112;SDS011;7657;50.140;7.076;2022-11-20T06:36:30;33.23;;;6.97;;
15112;SDS011;7657;50.140;7.076;2022-11-20T06:38:57;17.70;;;5.97;;
15112;SDS011;7657;50.140;7.076;2022-11-20T06:41:24;14.47;;;6.07;;
15112;SDS011;7657;50.140;7.076;2022-11-20T06:43:54;15.03;;;5.67;;
15112;SDS011;7657;50.140;7.076;2022-11-20T06:46:21;14.17;;;5.50;;
15112;SDS011;7657;50.140;7.076;2022-11-20T06:48:48;14.20;;;4.70;;
15112;SDS011;7657;50.140;7.076;2022-11-20T06:51:16;15.53;;;5.67;;
15112;SDS011;7657;50.140;7.076;2022-11-20T06:53:43;12.53;;;6.20;;
15112;SDS011;7657;50.140;7.076;2022-11-20T06:56:10;15.73;;;6.00;;
15112;SDS011;7657;50.140;7.076;2022-11-20T06:58:37;13.70;;;5.37;;
15112;SDS011;7657;50.140;7.076;2022-11-20T07:01:06;17.40;;;5.53;;
15112;SDS011;7657;50.140;7.076;2022-11-20T07:03:36;11.03;;;5.07;;
15112;SDS011;7657;50.140;7.076;2022-11-20T07:06:03;8.13;;;4.97;;
15112;SDS011;7657;50.140;7.076;2022-11-20T07:08:30;7.87;;;5.13;;
15112;SDS011;7657;50.140;7.076;2022-11-20T07:10:58;10.30;;;5.87;;
15112;SDS011;7657;50.140;7.076;2022-11-20T07:13:26;9.50;;;5.10;;
15112;SDS011;7657;50.140;7.076;2022-11-20T07:15:53;8.17;;;4.43;;
15112;SDS011;7657;50.140;7.076;2022-11-20T07:18:22;7.87;;;5.10;;
15112;SDS011;7657;50.140;7.076;2022-11-20T07:20:49;7.47;;;5.13;;
15112;SDS011;7657;50.140;7.076;2022-11-20T07:23:16;7.93;;;5.50;;
15112;SDS011;7657;50.140;7.076;2022-11-20T07:25:43;7.93;;;5.57;;
15112;SDS011;7657;50.140;7.076;2022-11-20T07:28:09;7.63;;;5.00;;
15112;SDS011;7657;50.140;7.076;2022-11-20T07:30:36;8.70;;;5.37;;
15112;SDS011;7657;50.140;7.076;2022-11-20T07:33:04;7.40;;;5.03;;
15112;SDS011;7657;50.140;7.076;2022-11-20T07:35:32;8.27;;;4.87;;
15112;SDS011;7657;50.140;7.076;2022-11-20T07:37:59;7.00;;;4.63;;
15112;SDS011;7657;50.140;7.076;2022-11-20T07:40:26;5.47;;;4.13;;
15112;SDS011;7657;50.140;7.076;2022-11-20T07:42:53;7.03;;;4.67;;
15112;SDS011;7657;50.140;7.076;2022-11-20T07:45:22;6.07;;;4.33;;
15112;SDS011;7657;50.140;7.076;2022-11-20T07:47:50;7.87;;;5.27;;
15112;SDS011;7657;50.140;7.076;2022-11-20T07:50:17;6.87;;;4.67;;
15112;SDS011;7657;50.140;7.076;2022-11-20T07:52:45;6.93;;;4.50;;
15112;SDS011;7657;50.140;7.076;2022-11-20T07:55:12;6.93;;;5.10;;
15112;SDS011;7657;50.140;7.076;2022-11-20T07:57:39;6.73;;;4.37;;
15112;SDS011;7657;50.140;7.076;2022-11-20T08:00:07;7.70;;;4.90;;
15112;SDS011;7657;50.140;7.076;2022-11-20T08:02:36;6.17;;;4.47;;
15112;SDS011;7657;50.140;7.076;2022-11-20T08:05:05;5.53;;;4.00;;
15112;SDS011;7657;50.140;7.076;2022-11-20T08:07:36;6.23;;;4.57;;
15112;SDS011;7657;50.140;7.076;2022-11-20T08:10:05;6.87;;;4.13;;
15112;SDS011;7657;50.140;7.076;2022-11-20T08:12:34;6.07;;;4.57;;
15112;SDS011;7657;50.140;7.076;2022-11-20T08:15:18;6.13;;;4.13;;
15112;SDS011;7657;50.140;7.076;2022-11-20T08:17:45;6.83;;;4.90;;
15112;SDS011;7657;50.140;7.076;2022-11-20T08:20:12;6.73;;;4.70;;
15112;SDS011;7657;50.140;7.076;2022-11-20T08:22:39;6.30;;;4.03;;
15112;SDS011;7657;50.140;7.076;2022-11-20T08:25:08;5.47;;;4.33;;
15112;SDS011;7657;50.140;7.076;2022-11-20T08:27:35;7.37;;;4.57;;
15112;SDS011;7657;50.140;7.076;2022-11-20T08:30:02;6.67;;;4.63;;
15112;SDS011;7657;50.140;7.076;2022-11-20T08:32:29;7.13;;;4.60;;
15112;SDS011;7657;50.140;7.076;2022-11-20T08:34:56;5.80;;;4.87;;
15112;SDS011;7657;50.140;7.076;2022-11-20T08:37:23;7.40;;;5.23;;
15112;SDS011;7657;50.140;7.076;2022-11-20T08:39:50;7.33;;;5.80;;
15112;SDS011;7657;50.140;7.076;2022-11-20T08:42:19;9.97;;;8.47;;
15112;SDS011;7657;50.140;7.076;2022-11-20T08:44:46;9.07;;;6.80;;
15112;SDS011;7657;50.140;7.076;2022-11-20T08:47:13;9.07;;;6.73;;
15112;SDS011;7657;50.140;7.076;2022-11-20T08:49:40;8.80;;;7.30;;
15112;SDS011;7657;50.140;7.076;2022-11-20T08:52:07;9.63;;;6.43;;
15112;SDS011;7657;50.140;7.076;2022-11-20T08:54:34;9.53;;;6.10;;
15112;SDS011;7657;50.140;7.076;2022-11-20T08:57:01;9.20;;;5.77;;
15112;SDS011;7657;50.140;7.076;2022-11-20T08:59:29;10.33;;;6.60;;
15112;SDS011;7657;50.140;7.076;2022-11-20T09:01:57;9.83;;;6.80;;
15112;SDS011;7657;50.140;7.076;2022-11-20T09:04:24;8.93;;;6.40;;
15112;SDS011;7657;50.140;7.076;2022-11-20T09:06:51;8.60;;;6.20;;
15112;SDS011;7657;50.140;7.076;2022-11-20T09:09:18;9.23;;;6.50;;
15112;SDS011;7657;50.140;7.076;2022-11-20T09:11:45;10.23;;;6.97;;
15112;SDS011;7657;50.140;7.076;2022-11-20T09:14:12;11.33;;;7.30;;
15112;SDS011;7657;50.140;7.076;2022-11-20T09:16:40;14.80;;;10.77;;
15112;SDS011;7657;50.140;7.076;2022-11-20T09:19:07;22.50;;;16.67;;
15112;SDS011;7657;50.140;7.076;2022-11-20T09:21:34;37.53;;;28.37;;
15112;SDS011;7657;50.140;7.076;2022-11-20T09:24:01;101.33;;;74.27;;
15112;SDS011;7657;50.140;7.076;2022-11-20T09:26:28;13.83;;;8.57;;
15112;SDS011;7657;50.140;7.076;2022-11-20T09:28:55;12.40;;;8.33;;
15112;SDS011;7657;50.140;7.076;2022-11-20T09:31:22;14.83;;;9.60;;
15112;SDS011;7657;50.140;7.076;2022-11-20T09:33:52;13.23;;;9.20;;
15112;SDS011;7657;50.140;7.076;2022-11-20T09:36:19;12.83;;;8.20;;
15112;SDS011;7657;50.140;7.076;2022-11-20T09:38:46;14.37;;;8.17;;
15112;SDS011;7657;50.140;7.076;2022-11-20T09:41:19;14.27;;;10.17;;
15112;SDS011;7657;50.140;7.076;2022-11-20T09:44:07;12.70;;;8.30;;
15112;SDS011;7657;50.140;7.076;2022-11-20T09:46:47;13.80;;;9.43;;
15112;SDS011;7657;50.140;7.076;2022-11-20T09:49:25;11.97;;;8.00;;
15112;SDS011;7657;50.140;7.076;2022-11-20T09:51:59;13.37;;;9.60;;
15112;SDS011;7657;50.140;7.076;2022-11-20T09:54:33;16.57;;;12.47;;
15112;SDS011;7657;50.140;7.076;2022-11-20T09:57:05;13.57;;;8.80;;
15112;SDS011;7657;50.140;7.076;2022-11-20T09:59:38;12.20;;;8.50;;
15112;SDS011;7657;50.140;7.076;2022-11-20T10:02:12;18.40;;;13.80;;
15112;SDS011;7657;50.140;7.076;2022-11-20T10:04:45;14.67;;;10.43;;
15112;SDS011;7657;50.140;7.076;2022-11-20T10:07:19;14.83;;;10.07;;
15112;SDS011;7657;50.140;7.076;2022-11-20T10:09:52;12.77;;;9.20;;
15112;SDS011;7657;50.140;7.076;2022-11-20T10:12:23;11.17;;;7.60;;
15112;SDS011;7657;50.140;7.076;2022-11-20T10:14:57;12.47;;;8.50;;
15112;SDS011;7657;50.140;7.076;2022-11-20T10:17:58;10.67;;;7.53;;
15112;SDS011;7657;50.140;7.076;2022-11-20T10:20:38;12.23;;;6.93;;
15112;SDS011;7657;50.140;7.076;2022-11-20T10:23:34;11.80;;;7.20;;
15112;SDS011;7657;50.140;7.076;2022-11-20T10:26:17;10.07;;;6.90;;
15112;SDS011;7657;50.140;7.076;2022-11-20T10:28:53;11.83;;;7.67;;
15112;SDS011;7657;50.140;7.076;2022-11-20T10:31:30;10.93;;;7.33;;
15112;SDS011;7657;50.140;7.076;2022-11-20T10:34:01;11.43;;;7.47;;
15112;SDS011;7657;50.140;7.076;2022-11-20T10:36:35;11.07;;;7.80;;
15112;SDS011;7657;50.140;7.076;2022-11-20T10:39:06;16.43;;;11.20;;
15112;SDS011;7657;50.140;7.076;2022-11-20T10:41:42;10.33;;;7.40;;
15112;SDS011;7657;50.140;7.076;2022-11-20T10:44:14;10.57;;;7.07;;
15112;SDS011;7657;50.140;7.076;2022-11-20T10:47:03;10.67;;;7.73;;
15112;SDS011;7657;50.140;7.076;2022-11-20T10:49:31;10.67;;;7.13;;
15112;SDS011;7657;50.140;7.076;2022-11-20T10:52:04;10.90;;;7.60;;
15112;SDS011;7657;50.140;7.076;2022-11-20T10:54:39;14.17;;;7.40;;
15112;SDS011;7657;50.140;7.076;2022-11-20T10:57:17;12.83;;;8.47;;
15112;SDS011;7657;50.140;7.076;2022-11-20T11:00:04;10.80;;;7.57;;
15112;SDS011;7657;50.140;7.076;2022-11-20T11:02:34;11.20;;;7.90;;
15112;SDS011;7657;50.140;7.076;2022-11-20T11:05:10;11.90;;;7.67;;
15112;SDS011;7657;50.140;7.076;2022-11-20T11:07:42;12.17;;;9.50;;
15112;SDS011;7657;50.140;7.076;2022-11-20T11:10:15;11.30;;;7.80;;
15112;SDS011;7657;50.140;7.076;2022-11-20T11:12:45;12.77;;;8.60;;
15112;SDS011;7657;50.140;7.076;2022-11-20T11:15:15;17.40;;;12.97;;
15112;SDS011;7657;50.140;7.076;2022-11-20T11:17:52;10.10;;;7.43;;
15112;SDS011;7657;50.140;7.076;2022-11-20T11:20:20;13.33;;;7.90;;
15112;SDS011;7657;50.140;7.076;2022-11-20T11:22:50;14.03;;;10.03;;
15112;SDS011;7657;50.140;7.076;2022-11-20T11:25:22;11.00;;;8.00;;
15112;SDS011;7657;50.140;7.076;2022-11-20T11:27:53;10.40;;;7.07;;
15112;SDS011;7657;50.140;7.076;2022-11-20T11:30:22;14.50;;;8.47;;
15112;SDS011;7657;50.140;7.076;2022-11-20T11:32:50;10.77;;;7.33;;
15112;SDS011;7657;50.140;7.076;2022-11-20T11:35:21;10.27;;;7.90;;
15112;SDS011;7657;50.140;7.076;2022-11-20T11:37:51;11.07;;;7.07;;
15112;SDS011;7657;50.140;7.076;2022-11-20T11:40:21;13.33;;;8.63;;
15112;SDS011;7657;50.140;7.076;2022-11-20T11:42:56;9.97;;;6.87;;
15112;SDS011;7657;50.140;7.076;2022-11-20T11:45:24;11.60;;;6.30;;
15112;SDS011;7657;50.140;7.076;2022-11-20T11:47:51;10.63;;;6.77;;
15112;SDS011;7657;50.140;7.076;2022-11-20T11:50:21;10.30;;;6.10;;
15112;SDS011;7657;50.140;7.076;2022-11-20T11:52:56;8.67;;;5.43;;
15112;SDS011;7657;50.140;7.076;2022-11-20T11:55:30;8.80;;;6.10;;
15112;SDS011;7657;50.140;7.076;2022-11-20T11:58:11;11.70;;;7.70;;
15112;SDS011;7657;50.140;7.076;2022-11-20T12:00:45;6.77;;;4.80;;
15112;SDS011;7657;50.140;7.076;2022-11-20T12:03:18;7.93;;;5.63;;
15112;SDS011;7657;50.140;7.076;2022-11-20T12:05:49;6.93;;;4.63;;
15112;SDS011;7657;50.140;7.076;2022-11-20T12:08:26;8.30;;;4.63;;
15112;SDS011;7657;50.140;7.076;2022-11-20T12:10:59;9.17;;;6.10;;
15112;SDS011;7657;50.140;7.076;2022-11-20T12:13:34;7.37;;;3.97;;
15112;SDS011;7657;50.140;7.076;2022-11-20T12:16:12;8.57;;;5.10;;
15112;SDS011;7657;50.140;7.076;2022-11-20T12:18:40;6.60;;;3.70;;
15112;SDS011;7657;50.140;7.076;2022-11-20T12:21:16;7.07;;;4.37;;
15112;SDS011;7657;50.140;7.076;2022-11-20T12:23:56;5.57;;;3.87;;
15112;SDS011;7657;50.140;7.076;2022-11-20T12:26:41;6.13;;;3.90;;
15112;SDS011;7657;50.140;7.076;2022-11-20T12:29:17;6.00;;;3.63;;
15112;SDS011;7657;50.140;7.076;2022-11-20T12:31:57;10.50;;;6.03;;
15112;SDS011;7657;50.140;7.076;2022-11-20T12:34:47;7.93;;;5.20;;
15112;SDS011;7657;50.140;7.076;2022-11-20T12:37:27;4.80;;;3.33;;
15112;SDS011;7657;50.140;7.076;2022-11-20T12:40:05;4.57;;;2.57;;
15112;SDS011;7657;50.140;7.076;2022-11-20T12:42:47;5.80;;;3.00;;
15112;SDS011;7657;50.140;7.076;2022-11-20T12:45:58;3.30;;;2.40;;
15112;SDS011;7657;50.140;7.076;2022-11-20T12:51:33;3.00;;;2.47;;
15112;SDS011;7657;50.140;7.076;2022-11-20T12:54:19;6.80;;;2.37;;
15112;SDS011;7657;50.140;7.076;2022-11-20T12:57:01;5.93;;;3.17;;
15112;SDS011;7657;50.140;7.076;2022-11-20T12:59:42;4.33;;;2.03;;
15112;SDS011;7657;50.140;7.076;2022-11-20T13:02:30;2.97;;;1.90;;
15112;SDS011;7657;50.140;7.076;2022-11-20T13:05:07;3.73;;;2.33;;
15112;SDS011;7657;50.140;7.076;2022-11-20T13:07:45;6.13;;;2.50;;
15112;SDS011;7657;50.140;7.076;2022-11-20T13:10:14;6.33;;;2.50;;
15112;SDS011;7657;50.140;7.076;2022-11-20T13:12:46;2.37;;;1.67;;
15112;SDS011;7657;50.140;7.076;2022-11-20T13:15:22;5.23;;;1.67;;
15112;SDS011;7657;50.140;7.076;2022-11-20T13:18:01;4.87;;;3.50;;
15112;SDS011;7657;50.140;7.076;2022-11-20T13:20:31;6.80;;;3.23;;
15112;SDS011;7657;50.140;7.076;2022-11-20T13:23:00;3.77;;;1.90;;
15112;SDS011;7657;50.140;7.076;2022-11-20T13:25:32;3.73;;;2.00;;
15112;SDS011;7657;50.140;7.076;2022-11-20T13:28:03;4.73;;;1.80;;
15112;SDS011;7657;50.140;7.076;2022-11-20T13:30:51;4.03;;;2.50;;
15112;SDS011;7657;50.140;7.076;2022-11-20T13:33:22;4.33;;;3.03;;
15112;SDS011;7657;50.140;7.076;2022-11-20T13:35:55;3.03;;;1.73;;
15112;SDS011;7657;50.140;7.076;2022-11-20T13:38:24;3.87;;;1.53;;
15112;SDS011;7657;50.140;7.076;2022-11-20T13:40:51;3.57;;;1.57;;
15112;SDS011;7657;50.140;7.076;2022-11-20T13:43:28;4.40;;;1.93;;
15112;SDS011;7657;50.140;7.076;2022-11-20T13:46:01;3.87;;;1.20;;
15112;SDS011;7657;50.140;7.076;2022-11-20T13:48:31;3.00;;;1.60;;
15112;SDS011;7657;50.140;7.076;2022-11-20T13:51:07;3.50;;;1.67;;
15112;SDS011;7657;50.140;7.076;2022-11-20T13:53:55;5.90;;;1.87;;
15112;SDS011;7657;50.140;7.076;2022-11-20T13:56:34;5.87;;;3.57;;
15112;SDS011;7657;50.140;7.076;2022-11-20T13:59:12;4.50;;;1.80;;
15112;SDS011;7657;50.140;7.076;2022-11-20T14:01:54;5.00;;;2.10;;
15112;SDS011;7657;50.140;7.076;2022-11-20T14:04:23;3.30;;;1.73;;
15112;SDS011;7657;50.140;7.076;2022-11-20T14:06:55;4.10;;;1.47;;
15112;SDS011;7657;50.140;7.076;2022-11-20T14:09:26;4.80;;;2.13;;
15112;SDS011;7657;50.140;7.076;2022-11-20T14:11:55;5.67;;;1.47;;
15112;SDS011;7657;50.140;7.076;2022-11-20T14:14:24;2.60;;;1.47;;
15112;SDS011;7657;50.140;7.076;2022-11-20T14:16:53;1.30;;;1.07;;
15112;SDS011;7657;50.140;7.076;2022-11-20T14:19:31;1.20;;;0.80;;
15112;SDS011;7657;50.140;7.076;2022-11-20T14:22:15;5.57;;;1.30;;
15112;SDS011;7657;50.140;7.076;2022-11-20T14:24:45;4.20;;;1.40;;
15112;SDS011;7657;50.140;7.076;2022-11-20T14:27:13;1.77;;;1.20;;
15112;SDS011;7657;50.140;7.076;2022-11-20T14:29:43;9.93;;;6.67;;
15112;SDS011;7657;50.140;7.076;2022-11-20T14:32:14;4.70;;;2.97;;
15112;SDS011;7657;50.140;7.076;2022-11-20T14:34:43;3.53;;;1.43;;
15112;SDS011;7657;50.140;7.076;2022-11-20T14:37:17;2.30;;;1.80;;
15112;SDS011;7657;50.140;7.076;2022-11-20T14:39:50;3.70;;;1.43;;
15112;SDS011;7657;50.140;7.076;2022-11-20T14:42:18;4.40;;;2.07;;
15112;SDS011;7657;50.140;7.076;2022-11-20T14:44:48;2.90;;;2.10;;
15112;SDS011;7657;50.140;7.076;2022-11-20T14:47:18;4.13;;;1.40;;
15112;SDS011;7657;50.140;7.076;2022-11-20T14:49:47;5.87;;;1.70;;
15112;SDS011;7657;50.140;7.076;2022-11-20T14:52:16;5.30;;;2.03;;
15112;SDS011;7657;50.140;7.076;2022-11-20T14:54:45;3.30;;;1.33;;
15112;SDS011;7657;50.140;7.076;2022-11-20T14:57:21;3.57;;;1.80;;
15112;SDS011;7657;50.140;7.076;2022-11-20T14:59:51;3.67;;;2.10;;
15112;SDS011;7657;50.140;7.076;2022-11-20T15:02:29;7.60;;;3.10;;
15112;SDS011;7657;50.140;7.076;2022-11-20T15:04:57;10.27;;;6.63;;
15112;SDS011;7657;50.140;7.076;2022-11-20T15:07:27;9.63;;;4.90;;
15112;SDS011;7657;50.140;7.076;2022-11-20T15:09:59;3.40;;;2.77;;
15112;SDS011;7657;50.140;7.076;2022-11-20T15:12:27;7.50;;;4.70;;
15112;SDS011;7657;50.140;7.076;2022-11-20T15:14:57;6.37;;;4.10;;